Ash Fork, AZ (86320)

1:07 PM MST on August 27, 2014 (GMT -0700)
3 mi. due north of Ash Fork AZ | Change Station
CLOSE
Current Station
Personal Weather Station
Location: Ash Fork, AZ
Elevation: 5395 ft
Nearby Weather Stations

Elev 5395 ft 35.27 °N, 112.49 °W | Updated 2 minutes ago

Partly Cloudy
Partly Cloudy
79.1 °F
Feels Like 79 °F
N
1.0
Wind Variable Wind from NNE
Gusts 2.0 mph

Today
High -- | Low -- °F
--% Chance of Precip.
Yesterday
High -- | Low -- °F
Precip. -- in
5:59 AM 7:03 PM
Waxing Crescent, 5% visible
Pressure 30.42 in
Visibility 10.0 miles
Clouds Clear
Heat Index 79 °F
Dew Point 53 °F
Humidity 41%
Rainfall 0.00 in
Snow Depth Not available.
UV 12 out of 12
Pollen 6.10 out of 12
Air Quality Not available.
Flu Activity Not available.
METAR KCMR 271955Z AUTO 22012KT 10SM CLR 22/08 A3042 RMK AO1

More Conditions Fewer Conditions

Pressure 30.42 in
Visibility 10.0 miles
Clouds Clear
Heat Index 79 °F
Dew Point 53 °F
Humidity 41%
Rainfall 0.00 in
Snow Depth Not available.
UV 12 out of 12
Pollen 6.10 out of 12
Air Quality Not available.
Flu Activity Not available.
METAR KCMR 271955Z AUTO 22012KT 10SM CLR 22/08 A3042 RMK AO1

More Conditions Fewer Conditions

10-Day Weather Forecast

Almanac

Astronomy

Aug. 27, 2014 Rise Set
Actual Time 5:59 AM MST 7:03 PM MST
Civil Twilight 5:33 AM MST 7:30 PM MST
Nautical Twilight 5:02 AM MST 8:01 PM MST
Astronomical Twilight 4:29 AM MST 8:33 PM MST
Moon 7:53 AM MST 8:05 PM MST
Length of Visible Light 13h 56m
Length of Day
13h 04m
Tomorrow will be 2m 5s shorter.
Waxing Crescent, 5% of the Moon is Illuminated
Today
Waxing Crescent
Sep 2
First Quarter
Sep 8
Full
Sep 15
Last Quarter
Sep 24
New

Today's Extremes

State Highs State Lows

Community

WunderPhotos

Upload Photos

1,747,776 photos uploaded!

Nearby

Snow Depth

Station Depth Elevation
Snowslide Canyon 1 in 9730 ft
Workman Creek 1 in 6900 ft
Maverick Fork 0 in 9200 ft
Beaver Head 0 in 7990 ft

Earthquake Activity

City Distance Mag. Time & Date
No recent earthquake activity has been reported nearby.
Minimum magnitude displayed is 2.5.

Coastal Water Temperatures

Place Temperature
No Stations Reporting

Nearby Weather Stations